<?xml version="1.0" encoding="UTF-8"?>
<gpx version="1.1" creator="GPSBabel - http://www.gpsbabel.org" xmlns="http://www.topografix.com/GPX/1/1" xmlns:xsi="http://www.w3.org/2001/XMLSchema-instance">
  <metadata>
    <time>2024-08-29T08:09:23.134Z</time>
    <bounds minlat="44.396600000" minlon="4.563320000" maxlat="44.415550000" maxlon="4.589590000"/>
  </metadata>
  <trk>
    <name>randogps7-658</name>
    <trkseg>
      <trkpt lat="44.396600000" lon="4.589590000">
        <ele>389.000000</ele>
        <time>2024-08-23T12:15:30Z</time>
      </trkpt>
      <trkpt lat="44.401500000" lon="4.587200000">
        <ele>367.000000</ele>
        <time>2024-08-23T12:27:02Z</time>
      </trkpt>
      <trkpt lat="44.402060000" lon="4.585790000">
        <ele>365.000000</ele>
        <time>2024-08-23T12:29:36Z</time>
      </trkpt>
      <trkpt lat="44.402550000" lon="4.586140000">
        <ele>361.000000</ele>
        <time>2024-08-23T12:30:50Z</time>
      </trkpt>
      <trkpt lat="44.403210000" lon="4.586060000">
        <ele>359.000000</ele>
        <time>2024-08-23T12:32:18Z</time>
      </trkpt>
      <trkpt lat="44.403800000" lon="4.586140000">
        <ele>357.000000</ele>
        <time>2024-08-23T12:33:37Z</time>
      </trkpt>
      <trkpt lat="44.404420000" lon="4.585890000">
        <ele>356.000000</ele>
        <time>2024-08-23T12:35:03Z</time>
      </trkpt>
      <trkpt lat="44.405190000" lon="4.586320000">
        <ele>351.000000</ele>
        <time>2024-08-23T12:36:54Z</time>
      </trkpt>
      <trkpt lat="44.405750000" lon="4.586990000">
        <ele>351.000000</ele>
        <time>2024-08-23T12:38:32Z</time>
      </trkpt>
      <trkpt lat="44.405750000" lon="4.587590000">
        <ele>351.000000</ele>
        <time>2024-08-23T12:39:29Z</time>
      </trkpt>
      <trkpt lat="44.406730000" lon="4.587420000">
        <ele>348.000000</ele>
        <time>2024-08-23T12:41:41Z</time>
      </trkpt>
      <trkpt lat="44.407790000" lon="4.587990000">
        <ele>350.000000</ele>
        <time>2024-08-23T12:44:13Z</time>
      </trkpt>
      <trkpt lat="44.408580000" lon="4.588120000">
        <ele>354.000000</ele>
        <time>2024-08-23T12:45:59Z</time>
      </trkpt>
      <trkpt lat="44.409290000" lon="4.588140000">
        <ele>355.000000</ele>
        <time>2024-08-23T12:47:34Z</time>
      </trkpt>
      <trkpt lat="44.410430000" lon="4.588260000">
        <ele>350.000000</ele>
        <time>2024-08-23T12:50:06Z</time>
      </trkpt>
      <trkpt lat="44.410850000" lon="4.586440000">
        <ele>342.000000</ele>
        <time>2024-08-23T12:53:09Z</time>
      </trkpt>
      <trkpt lat="44.411030000" lon="4.585010000">
        <ele>354.000000</ele>
        <time>2024-08-23T12:55:27Z</time>
      </trkpt>
      <trkpt lat="44.411770000" lon="4.584790000">
        <ele>351.000000</ele>
        <time>2024-08-23T12:57:08Z</time>
      </trkpt>
      <trkpt lat="44.412320000" lon="4.584850000">
        <ele>350.000000</ele>
        <time>2024-08-23T12:58:22Z</time>
      </trkpt>
      <trkpt lat="44.412720000" lon="4.584610000">
        <ele>348.000000</ele>
        <time>2024-08-23T12:59:20Z</time>
      </trkpt>
      <trkpt lat="44.413120000" lon="4.583040000">
        <ele>346.000000</ele>
        <time>2024-08-23T13:01:58Z</time>
      </trkpt>
      <trkpt lat="44.413240000" lon="4.582460000">
        <ele>345.000000</ele>
        <time>2024-08-23T13:02:56Z</time>
      </trkpt>
      <trkpt lat="44.413120000" lon="4.581690000">
        <ele>343.000000</ele>
        <time>2024-08-23T13:04:11Z</time>
      </trkpt>
      <trkpt lat="44.413070000" lon="4.581020000">
        <ele>338.000000</ele>
        <time>2024-08-23T13:05:15Z</time>
      </trkpt>
      <trkpt lat="44.413050000" lon="4.580100000">
        <ele>331.000000</ele>
        <time>2024-08-23T13:06:43Z</time>
      </trkpt>
      <trkpt lat="44.413000000" lon="4.579790000">
        <ele>330.000000</ele>
        <time>2024-08-23T13:07:13Z</time>
      </trkpt>
      <trkpt lat="44.413230000" lon="4.579480000">
        <ele>328.000000</ele>
        <time>2024-08-23T13:07:56Z</time>
      </trkpt>
      <trkpt lat="44.412990000" lon="4.579120000">
        <ele>328.000000</ele>
        <time>2024-08-23T13:08:43Z</time>
      </trkpt>
      <trkpt lat="44.413540000" lon="4.579040000">
        <ele>327.000000</ele>
        <time>2024-08-23T13:09:57Z</time>
      </trkpt>
      <trkpt lat="44.413920000" lon="4.578950000">
        <ele>328.000000</ele>
        <time>2024-08-23T13:10:48Z</time>
      </trkpt>
      <trkpt lat="44.414360000" lon="4.577990000">
        <ele>334.000000</ele>
        <time>2024-08-23T13:12:37Z</time>
      </trkpt>
      <trkpt lat="44.414660000" lon="4.577690000">
        <ele>336.000000</ele>
        <time>2024-08-23T13:13:26Z</time>
      </trkpt>
      <trkpt lat="44.414920000" lon="4.576990000">
        <ele>339.000000</ele>
        <time>2024-08-23T13:14:41Z</time>
      </trkpt>
      <trkpt lat="44.415060000" lon="4.576040000">
        <ele>342.000000</ele>
        <time>2024-08-23T13:16:14Z</time>
      </trkpt>
      <trkpt lat="44.414760000" lon="4.575670000">
        <ele>342.000000</ele>
        <time>2024-08-23T13:17:07Z</time>
      </trkpt>
      <trkpt lat="44.414560000" lon="4.574890000">
        <ele>344.000000</ele>
        <time>2024-08-23T13:18:26Z</time>
      </trkpt>
      <trkpt lat="44.414740000" lon="4.574570000">
        <ele>345.000000</ele>
        <time>2024-08-23T13:19:05Z</time>
      </trkpt>
      <trkpt lat="44.414570000" lon="4.574160000">
        <ele>345.000000</ele>
        <time>2024-08-23T13:19:50Z</time>
      </trkpt>
      <trkpt lat="44.414630000" lon="4.573810000">
        <ele>345.000000</ele>
        <time>2024-08-23T13:20:24Z</time>
      </trkpt>
      <trkpt lat="44.414840000" lon="4.573340000">
        <ele>345.000000</ele>
        <time>2024-08-23T13:21:17Z</time>
      </trkpt>
      <trkpt lat="44.415410000" lon="4.572280000">
        <ele>342.000000</ele>
        <time>2024-08-23T13:23:24Z</time>
      </trkpt>
      <trkpt lat="44.415550000" lon="4.571950000">
        <ele>340.000000</ele>
        <time>2024-08-23T13:24:00Z</time>
      </trkpt>
      <trkpt lat="44.415370000" lon="4.570670000">
        <ele>340.000000</ele>
        <time>2024-08-23T13:26:05Z</time>
      </trkpt>
      <trkpt lat="44.415360000" lon="4.570160000">
        <ele>339.000000</ele>
        <time>2024-08-23T13:26:53Z</time>
      </trkpt>
      <trkpt lat="44.415320000" lon="4.569710000">
        <ele>338.000000</ele>
        <time>2024-08-23T13:27:37Z</time>
      </trkpt>
      <trkpt lat="44.415060000" lon="4.568870000">
        <ele>337.000000</ele>
        <time>2024-08-23T13:29:04Z</time>
      </trkpt>
      <trkpt lat="44.415050000" lon="4.568120000">
        <ele>336.000000</ele>
        <time>2024-08-23T13:30:15Z</time>
      </trkpt>
      <trkpt lat="44.415090000" lon="4.567610000">
        <ele>336.000000</ele>
        <time>2024-08-23T13:31:04Z</time>
      </trkpt>
      <trkpt lat="44.415290000" lon="4.567200000">
        <ele>331.000000</ele>
        <time>2024-08-23T13:31:52Z</time>
      </trkpt>
      <trkpt lat="44.414870000" lon="4.566420000">
        <ele>331.000000</ele>
        <time>2024-08-23T13:33:25Z</time>
      </trkpt>
      <trkpt lat="44.414480000" lon="4.565870000">
        <ele>328.000000</ele>
        <time>2024-08-23T13:34:39Z</time>
      </trkpt>
      <trkpt lat="44.414030000" lon="4.565670000">
        <ele>331.000000</ele>
        <time>2024-08-23T13:35:42Z</time>
      </trkpt>
      <trkpt lat="44.413850000" lon="4.565490000">
        <ele>332.000000</ele>
        <time>2024-08-23T13:36:11Z</time>
      </trkpt>
      <trkpt lat="44.413800000" lon="4.565360000">
        <ele>333.000000</ele>
        <time>2024-08-23T13:36:25Z</time>
      </trkpt>
      <trkpt lat="44.413860000" lon="4.564950000">
        <ele>333.000000</ele>
        <time>2024-08-23T13:37:05Z</time>
      </trkpt>
      <trkpt lat="44.414010000" lon="4.564220000">
        <ele>331.000000</ele>
        <time>2024-08-23T13:38:17Z</time>
      </trkpt>
      <trkpt lat="44.414080000" lon="4.564000000">
        <ele>331.000000</ele>
        <time>2024-08-23T13:38:40Z</time>
      </trkpt>
      <trkpt lat="44.413930000" lon="4.563750000">
        <ele>332.000000</ele>
        <time>2024-08-23T13:39:11Z</time>
      </trkpt>
      <trkpt lat="44.413130000" lon="4.563440000">
        <ele>338.000000</ele>
        <time>2024-08-23T13:41:02Z</time>
      </trkpt>
      <trkpt lat="44.412420000" lon="4.563320000">
        <ele>343.000000</ele>
        <time>2024-08-23T13:42:38Z</time>
      </trkpt>
      <trkpt lat="44.412060000" lon="4.563360000">
        <ele>345.000000</ele>
        <time>2024-08-23T13:43:26Z</time>
      </trkpt>
      <trkpt lat="44.411630000" lon="4.563560000">
        <ele>348.000000</ele>
        <time>2024-08-23T13:44:26Z</time>
      </trkpt>
      <trkpt lat="44.411210000" lon="4.563850000">
        <ele>351.000000</ele>
        <time>2024-08-23T13:45:29Z</time>
      </trkpt>
      <trkpt lat="44.410920000" lon="4.564080000">
        <ele>352.000000</ele>
        <time>2024-08-23T13:46:13Z</time>
      </trkpt>
      <trkpt lat="44.410690000" lon="4.564250000">
        <ele>353.000000</ele>
        <time>2024-08-23T13:46:48Z</time>
      </trkpt>
      <trkpt lat="44.410500000" lon="4.564500000">
        <ele>354.000000</ele>
        <time>2024-08-23T13:47:23Z</time>
      </trkpt>
      <trkpt lat="44.410160000" lon="4.564590000">
        <ele>355.000000</ele>
        <time>2024-08-23T13:48:09Z</time>
      </trkpt>
      <trkpt lat="44.409870000" lon="4.564900000">
        <ele>355.000000</ele>
        <time>2024-08-23T13:48:58Z</time>
      </trkpt>
      <trkpt lat="44.409510000" lon="4.565310000">
        <ele>354.000000</ele>
        <time>2024-08-23T13:50:00Z</time>
      </trkpt>
      <trkpt lat="44.409180000" lon="4.565590000">
        <ele>353.000000</ele>
        <time>2024-08-23T13:50:51Z</time>
      </trkpt>
      <trkpt lat="44.408910000" lon="4.565620000">
        <ele>353.000000</ele>
        <time>2024-08-23T13:51:27Z</time>
      </trkpt>
      <trkpt lat="44.408770000" lon="4.565530000">
        <ele>354.000000</ele>
        <time>2024-08-23T13:51:48Z</time>
      </trkpt>
      <trkpt lat="44.408430000" lon="4.565550000">
        <ele>354.000000</ele>
        <time>2024-08-23T13:52:33Z</time>
      </trkpt>
      <trkpt lat="44.408150000" lon="4.565590000">
        <ele>355.000000</ele>
        <time>2024-08-23T13:53:11Z</time>
      </trkpt>
      <trkpt lat="44.407850000" lon="4.566330000">
        <ele>354.000000</ele>
        <time>2024-08-23T13:54:32Z</time>
      </trkpt>
      <trkpt lat="44.407410000" lon="4.567800000">
        <ele>352.000000</ele>
        <time>2024-08-23T13:57:04Z</time>
      </trkpt>
      <trkpt lat="44.406420000" lon="4.571110000">
        <ele>354.000000</ele>
        <time>2024-08-23T14:02:46Z</time>
      </trkpt>
      <trkpt lat="44.405440000" lon="4.574340000">
        <ele>356.000000</ele>
        <time>2024-08-23T14:08:20Z</time>
      </trkpt>
      <trkpt lat="44.404960000" lon="4.575960000">
        <ele>354.000000</ele>
        <time>2024-08-23T14:11:08Z</time>
      </trkpt>
      <trkpt lat="44.403870000" lon="4.579450000">
        <ele>366.000000</ele>
        <time>2024-08-23T14:17:11Z</time>
      </trkpt>
      <trkpt lat="44.402730000" lon="4.583150000">
        <ele>363.000000</ele>
        <time>2024-08-23T14:23:35Z</time>
      </trkpt>
      <trkpt lat="44.402130000" lon="4.585190000">
        <ele>365.000000</ele>
        <time>2024-08-23T14:27:05Z</time>
      </trkpt>
      <trkpt lat="44.401680000" lon="4.586660000">
        <ele>366.000000</ele>
        <time>2024-08-23T14:29:38Z</time>
      </trkpt>
      <trkpt lat="44.401410000" lon="4.587060000">
        <ele>367.000000</ele>
        <time>2024-08-23T14:30:30Z</time>
      </trkpt>
      <trkpt lat="44.400310000" lon="4.587680000">
        <ele>373.000000</ele>
        <time>2024-08-23T14:33:08Z</time>
      </trkpt>
      <trkpt lat="44.399380000" lon="4.588180000">
        <ele>376.000000</ele>
        <time>2024-08-23T14:35:21Z</time>
      </trkpt>
      <trkpt lat="44.397700000" lon="4.589080000">
        <ele>384.000000</ele>
        <time>2024-08-23T14:39:21Z</time>
      </trkpt>
      <trkpt lat="44.396800000" lon="4.589510000">
        <ele>389.000000</ele>
        <time>2024-08-23T14:41:28Z</time>
      </trkpt>
    </trkseg>
  </trk>
</gpx>
